Time;durP1;ratioP1;P1;durP2;ratioP2;P2;SDS_P1;SDS_P2;PMS_P1;PMS_P2;Temp;Humidity;BMP_temperature;BMP_pressure;BME280_temperature;BME280_humidity;BME280_pressure;Samples;Min_cycle;Max_cycle;Signal;HPM_P1;HPM_P2
2022/02/10 00:18:23;;;;;;;7.60;5.90;;;15.70;81.50;;;;;;4178046;28;20508;-61
2022/02/10 00:20:51;;;;;;;9.07;6.22;;;15.70;81.50;;;;;;4178306;28;20136;-62
2022/02/10 00:23:28;;;;;;;10.50;5.60;;;15.70;81.50;;;;;;4171480;28;20127;-62
2022/02/10 00:34:10;;;;;;;8.02;5.55;;;15.60;81.40;;;;;;4178143;28;20044;-61
2022/02/10 00:34:26;;;;;;;6.50;3.03;;;15.60;81.60;;;;;;4161665;28;20608;-61
2022/02/10 00:36:58;;;;;;;3.50;2.95;;;15.60;82.00;;;;;;4161450;28;20053;-61
2022/02/10 00:42:00;;;;;;;2.85;1.80;;;15.60;83.20;;;;;;4177317;28;20045;-62
2022/02/10 00:44:22;;;;;;;2.20;2.00;;;15.70;82.20;;;;;;4178224;28;20523;-62
2022/02/10 00:46:44;;;;;;;1.67;1.25;;;15.70;82.00;;;;;;4178167;28;20075;-62
2022/02/10 00:49:07;;;;;;;4.00;1.33;;;15.70;81.70;;;;;;4177691;28;20131;-62
2022/02/10 00:51:32;;;;;;;0.88;0.88;;;15.80;81.60;;;;;;4177759;28;20063;-62
2022/02/10 00:53:54;;;;;;;1.05;1.00;;;15.80;81.50;;;;;;4176446;28;20057;-62
2022/02/10 00:56:16;;;;;;;1.70;1.50;;;15.80;81.40;;;;;;4176434;28;20049;-62
2022/02/10 00:58:42;;;;;;;1.67;1.58;;;15.80;81.30;;;;;;4176359;28;20135;-62
2022/02/10 01:30:35;;;;;;;1.70;1.60;;;15.70;81.70;;;;;;4152875;28;20045;-63
2022/02/10 01:33:02;;;;;;;2.05;1.85;;;15.80;81.80;;;;;;4177129;28;20076;-64
2022/02/10 01:35:25;;;;;;;3.33;1.90;;;15.90;81.60;;;;;;4177226;28;20049;-64
2022/02/10 01:37:47;;;;;;;2.97;1.60;;;16.00;81.30;;;;;;4175741;28;20060;-64
2022/02/10 01:40:17;;;;;;;2.05;1.92;;;16.00;80.90;;;;;;4176685;28;20064;-64
2022/02/10 01:43:23;;;;;;;4.25;2.05;;;16.00;80.80;;;;;;4176535;28;20036;-62
2022/02/10 02:04:25;;;;;;;4.00;2.40;;;15.90;81.10;;;;;;4159929;28;20052;-64
2022/02/10 02:06:50;;;;;;;2.28;2.17;;;15.90;81.30;;;;;;4158375;28;20061;-64
2022/02/10 02:09:14;;;;;;;3.03;2.30;;;15.90;81.20;;;;;;4175138;28;20052;-64
2022/02/10 02:11:39;;;;;;;2.13;2.03;;;15.90;81.30;;;;;;4160019;28;20244;-64
2022/02/10 02:14:01;;;;;;;3.95;2.03;;;15.90;81.50;;;;;;4160181;28;20066;-64
2022/02/10 02:16:25;;;;;;;2.80;2.55;;;15.90;81.40;;;;;;4160141;28;20052;-64
2022/02/10 02:18:49;;;;;;;2.42;2.22;;;16.00;81.30;;;;;;4173428;28;20052;-64
2022/02/10 02:21:17;;;;;;;2.58;2.38;;;16.00;81.00;;;;;;4176410;28;20127;-64
2022/02/10 02:23:40;;;;;;;2.08;1.98;;;16.00;80.80;;;;;;4176241;28;20762;-64
2022/02/10 02:26:07;;;;;;;2.20;2.00;;;16.10;80.80;;;;;;4176505;28;20053;-64
2022/02/10 02:28:34;;;;;;;2.38;1.80;;;16.10;80.70;;;;;;4175948;28;20580;-63
2022/02/10 02:31:03;;;;;;;2.45;1.95;;;16.10;80.50;;;;;;4176422;28;20037;-64
2022/02/10 02:36:39;;;;;;;2.55;1.65;;;16.10;80.30;;;;;;4176119;28;20048;-64
2022/02/10 03:05:59;;;;;;;2.10;1.90;;;16.00;81.00;;;;;;4175242;28;20056;-64
2022/02/10 03:08:22;;;;;;;2.30;2.20;;;16.00;80.80;;;;;;4175634;28;20048;-66
2022/02/10 03:11:04;;;;;;;2.35;1.85;;;16.00;80.80;;;;;;4175494;28;20040;-64
2022/02/10 03:13:32;;;;;;;2.25;2.00;;;16.10;80.70;;;;;;4174239;28;20398;-64
2022/02/10 03:16:07;;;;;;;3.28;2.10;;;16.10;80.70;;;;;;4175456;28;20051;-64
2022/02/10 03:18:40;;;;;;;2.30;2.20;;;16.10;80.60;;;;;;4175884;28;20049;-64
2022/02/10 03:21:25;;;;;;;2.45;2.25;;;16.10;80.50;;;;;;4175426;28;20067;-64
2022/02/10 04:04:10;;;;;;;3.03;1.80;;;16.10;80.60;;;;;;4159010;28;20061;-64
2022/02/10 04:09:36;;;;;;;1.30;1.20;;;16.20;80.30;;;;;;4158686;28;20041;-64
2022/02/10 04:12:20;;;;;;;1.50;1.17;;;16.20;80.20;;;;;;4162675;28;20385;-64
2022/02/10 04:14:48;;;;;;;1.65;1.13;;;16.20;80.10;;;;;;4176016;28;20062;-64
2022/02/10 04:17:31;;;;;;;2.83;1.40;;;16.30;79.90;;;;;;4178386;28;20476;-64
2022/02/10 04:20:15;;;;;;;3.05;1.75;;;16.30;79.80;;;;;;4178387;28;20064;-64
2022/02/10 04:22:48;;;;;;;1.75;1.65;;;16.30;79.90;;;;;;4177380;28;20053;-64
2022/02/10 04:25:32;;;;;;;3.15;1.90;;;16.30;79.90;;;;;;4178051;28;20134;-64
2022/02/10 04:28:10;;;;;;;4.20;2.30;;;16.30;79.80;;;;;;4178146;28;20106;-64
2022/02/10 04:30:57;;;;;;;2.88;1.73;;;16.30;79.70;;;;;;4177866;28;20048;-64
2022/02/10 04:39:33;;;;;;;2.60;2.40;;;16.20;79.80;;;;;;4137811;28;20061;-63
2022/02/10 04:45:22;;;;;;;2.70;2.47;;;16.30;80.00;;;;;;4177721;28;20087;-64
2022/02/10 04:55:59;;;;;;;4.90;2.70;;;16.50;78.70;;;;;;4160362;28;20056;-64
2022/02/10 04:58:39;;;;;;;2.80;2.40;;;16.50;78.70;;;;;;4177546;28;20048;-64
2022/02/10 05:01:20;;;;;;;3.33;2.78;;;16.50;78.60;;;;;;4163337;28;20068;-64
2022/02/10 05:17:21;;;;;;;2.75;2.55;;;16.30;79.20;;;;;;4160857;28;20057;-64
2022/02/10 05:22:51;;;;;;;3.38;3.13;;;16.20;79.50;;;;;;4177535;28;20049;-64
2022/02/10 05:36:09;;;;;;;4.70;4.10;;;16.30;79.60;;;;;;4135062;28;20146;-64
2022/02/10 05:38:35;;;;;;;4.32;4.03;;;16.40;79.30;;;;;;4156625;28;20114;-64
2022/02/10 05:43:52;;;;;;;4.63;4.22;;;16.50;78.70;;;;;;4176404;28;20460;-64
2022/02/10 05:46:23;;;;;;;7.47;5.20;;;16.50;78.50;;;;;;4159956;28;20460;-63
2022/02/10 05:54:19;;;;;;;7.30;4.75;;;16.50;78.10;;;;;;4167950;28;20147;-64
2022/02/10 05:56:54;;;;;;;5.85;5.25;;;16.50;78.20;;;;;;4175640;28;20582;-63
2022/02/10 05:59:44;;;;;;;5.57;5.07;;;16.50;78.20;;;;;;4176174;28;20110;-63
2022/02/10 06:02:29;;;;;;;6.30;5.50;;;16.50;78.30;;;;;;4176778;28;20139;-63
2022/02/10 06:48:37;;;;;;;10.07;6.57;;;16.50;78.00;;;;;;4158710;28;20072;-64
2022/02/10 06:53:46;;;;;;;8.13;6.75;;;16.40;78.20;;;;;;4173235;28;20092;-63
2022/02/10 07:07:05;;;;;;;10.80;7.55;;;16.40;79.10;;;;;;4159360;28;20049;-67
2022/02/10 07:12:43;;;;;;;9.75;6.90;;;16.50;78.80;;;;;;4164278;28;20049;-65
2022/02/10 07:47:50;;;;;;;10.90;7.47;;;16.50;77.90;;;;;;4158031;28;20061;-63
2022/02/10 07:58:45;;;;;;;8.85;7.22;;;16.30;78.70;;;;;;4156364;28;20064;-63
2022/02/10 08:54:58;;;;;;;11.00;5.32;;;15.70;80.60;;;;;;4170873;28;20130;-60
2022/02/10 08:57:26;;;;;;;13.68;5.68;;;15.70;80.80;;;;;;4159297;28;20056;-61
2022/02/10 09:05:28;;;;;;;21.05;6.00;;;15.60;80.80;;;;;;4108030;28;20106;-61
2022/02/10 09:11:09;;;;;;;9.55;4.88;;;15.60;81.40;;;;;;4238564;27;22306;-62
2022/02/10 09:13:40;;;;;;;8.15;4.53;;;15.70;81.20;;;;;;4237780;27;20108;-61
2022/02/10 09:16:37;;;;;;;11.10;5.03;;;15.80;81.00;;;;;;4237892;27;20062;-62
2022/02/10 09:22:13;;;;;;;10.88;4.75;;;15.80;80.60;;;;;;4237776;27;20553;-62
2022/02/10 10:02:02;;;;;;;9.40;3.33;;;16.00;79.30;;;;;;4197858;28;20464;-60
2022/02/10 10:04:31;;;;;;;9.93;3.40;;;16.00;79.50;;;;;;4219965;27;20055;-60
2022/02/10 10:07:15;;;;;;;8.23;3.10;;;15.90;79.50;;;;;;4220149;27;20055;-61
2022/02/10 10:09:47;;;;;;;5.97;2.83;;;15.90;79.50;;;;;;4201299;28;20792;-60
2022/02/10 10:15:22;;;;;;;9.65;2.83;;;15.80;79.70;;;;;;4219597;27;20067;-60
2022/02/10 10:18:18;;;;;;;8.02;2.53;;;15.90;79.80;;;;;;4219666;27;20044;-59
2022/02/10 10:21:03;;;;;;;5.78;2.38;;;15.80;79.90;;;;;;4213923;27;20052;-61
2022/02/10 10:23:41;;;;;;;7.18;2.45;;;15.80;80.00;;;;;;4208846;27;20159;-60
2022/02/10 10:26:26;;;;;;;10.00;2.58;;;15.70;80.10;;;;;;4208167;28;20056;-61
2022/02/10 10:50:35;;;;;;;8.23;2.65;;;15.60;80.40;;;;;;4207629;28;20518;-60
2022/02/10 10:53:13;;;;;;;6.25;2.20;;;15.60;80.30;;;;;;4208161;28;20048;-60
2022/02/10 10:55:46;;;;;;;5.90;2.20;;;15.60;80.30;;;;;;4206333;28;20055;-61
2022/02/10 10:58:14;;;;;;;9.02;2.47;;;15.60;80.20;;;;;;4208369;28;20097;-60
2022/02/10 11:01:08;;;;;;;11.27;2.83;;;15.60;80.30;;;;;;4207356;28;20052;-61
2022/02/10 11:04:31;;;;;;;10.00;2.83;;;15.60;80.40;;;;;;4207808;28;20062;-59
2022/02/10 11:37:33;;;;;;;13.18;2.65;;;15.70;80.00;;;;;;4205707;27;20172;-62
2022/02/10 11:40:15;;;;;;;5.68;1.70;;;15.80;79.60;;;;;;4206817;28;20411;-62
2022/02/10 11:42:51;;;;;;;;;;;15.80;79.60;;;;;;4207079;28;20575;-62
2022/02/10 12:00:16;;;;;;;4.95;1.25;;;15.90;79.30;;;;;;4206665;28;20104;-62
2022/02/10 12:30:39;;;;;;;6.20;1.73;;;15.70;79.50;;;;;;4189620;28;20151;-62
2022/02/10 12:36:22;;;;;;;7.32;1.88;;;15.70;79.90;;;;;;4172580;28;20056;-62
2022/02/10 12:39:19;;;;;;;8.75;1.55;;;15.60;79.50;;;;;;4206226;28;20078;-62
2022/02/10 14:13:52;;;;;;;5.35;1.60;;;15.10;79.90;;;;;;4208736;28;20048;-60
2022/02/10 14:16:30;;;;;;;9.02;2.22;;;15.10;80.00;;;;;;4208859;28;20059;-61
2022/02/10 14:18:56;;;;;;;4.57;1.25;;;15.00;79.50;;;;;;4191795;28;20127;-60
2022/02/10 14:21:26;;;;;;;5.13;1.40;;;15.10;79.40;;;;;;4192059;28;20052;-60
2022/02/10 14:28:58;;;;;;;10.63;1.60;;;15.00;78.40;;;;;;4208236;28;20105;-60
2022/02/10 14:31:21;;;;;;;5.65;1.70;;;15.00;78.80;;;;;;4208823;28;20039;-60
2022/02/10 14:33:45;;;;;;;4.72;1.40;;;15.00;79.40;;;;;;4208698;28;20044;-61
2022/02/10 14:36:11;;;;;;;7.95;1.88;;;15.00;79.70;;;;;;4197457;28;20078;-60
2022/02/10 14:38:50;;;;;;;8.40;1.70;;;15.00;80.00;;;;;;4207248;28;20056;-60
2022/02/10 15:46:45;;;;;;;5.15;1.65;;;15.50;78.40;;;;;;4193163;28;20063;-60
2022/02/10 15:49:21;;;;;;;9.40;2.00;;;15.60;78.60;;;;;;4194790;28;20072;-61
2022/02/10 15:54:34;;;;;;;9.63;1.75;;;16.50;74.70;;;;;;4223942;28;20049;-61
2022/02/10 16:10:48;;;;;;;10.18;1.88;;;17.10;71.80;;;;;;4209747;28;20048;-61
2022/02/10 16:18:44;;;;;;;11.27;1.73;;;19.90;59.80;;;;;;4197278;28;20047;-61
2022/02/10 16:21:07;;;;;;;9.18;2.13;;;19.80;60.20;;;;;;4217452;27;20036;-60
2022/02/10 16:23:32;;;;;;;7.93;1.90;;;19.70;61.70;;;;;;4210707;28;20056;-61
2022/02/10 16:26:09;;;;;;;8.43;2.40;;;19.50;61.40;;;;;;4222500;27;20100;-60
2022/02/10 16:28:34;;;;;;;7.18;1.55;;;19.30;62.20;;;;;;4226107;28;20047;-60
2022/02/10 16:31:00;;;;;;;6.78;2.08;;;19.20;62.90;;;;;;4196672;28;20052;-61
2022/02/10 16:33:29;;;;;;;9.63;2.28;;;19.10;63.00;;;;;;4192550;28;20105;-61
2022/02/10 16:35:58;;;;;;;7.93;1.90;;;19.20;63.10;;;;;;4193575;28;20495;-60
2022/02/10 16:38:25;;;;;;;6.50;1.70;;;19.20;63.10;;;;;;4217989;28;20479;-60
2022/02/10 16:40:55;;;;;;;8.10;1.67;;;19.20;63.10;;;;;;4225388;28;20052;-61
2022/02/10 16:43:22;;;;;;;7.13;2.35;;;19.20;63.90;;;;;;4225650;28;20075;-61
2022/02/10 16:45:49;;;;;;;8.95;1.92;;;19.20;62.80;;;;;;4223891;28;20047;-61
2022/02/10 16:48:18;;;;;;;7.28;1.98;;;19.20;62.90;;;;;;4209044;28;20403;-61
2022/02/10 16:50:45;;;;;;;14.40;2.92;;;19.20;63.10;;;;;;4206337;28;20055;-60
2022/02/10 16:53:16;;;;;;;11.55;1.67;;;19.10;63.20;;;;;;4207918;28;20055;-60
2022/02/10 16:55:48;;;;;;;10.05;1.80;;;19.10;63.40;;;;;;4209266;28;20055;-60
2022/02/10 16:58:26;;;;;;;10.25;2.13;;;19.10;63.60;;;;;;4197554;28;20480;-61
2022/02/10 17:01:19;;;;;;;8.65;1.80;;;19.00;64.70;;;;;;4208876;28;20120;-61
2022/02/10 17:04:18;;;;;;;6.00;1.52;;;18.90;64.20;;;;;;4225192;28;20240;-60
2022/02/10 17:18:05;;;;;;;8.68;2.08;;;19.00;64.40;;;;;;4191891;28;20550;-60
2022/02/10 17:25:59;;;;;;;7.00;2.70;;;19.10;64.00;;;;;;4207327;28;20105;-61
2022/02/10 17:28:21;;;;;;;7.65;2.05;;;19.10;63.90;;;;;;4210203;28;20055;-62
2022/02/10 17:31:03;;;;;;;9.45;2.25;;;19.20;63.80;;;;;;4226354;27;20064;-62
2022/02/10 17:33:31;;;;;;;5.72;2.42;;;19.20;63.70;;;;;;4228606;27;20047;-61
2022/02/10 17:36:15;;;;;;;8.65;2.35;;;19.20;63.50;;;;;;4223022;28;20040;-60
2022/02/10 17:46:58;;;;;;;11.40;2.35;;;19.30;63.30;;;;;;4176615;28;20045;-60
2022/02/10 17:52:11;;;;;;;7.25;1.75;;;19.20;63.40;;;;;;4211571;28;20415;-59
2022/02/10 17:54:33;;;;;;;5.80;1.65;;;19.20;63.70;;;;;;4211443;28;20055;-61
2022/02/10 17:56:56;;;;;;;6.38;1.85;;;19.10;63.90;;;;;;4211508;28;20488;-60
2022/02/10 17:59:20;;;;;;;11.35;1.92;;;19.10;64.10;;;;;;4222589;27;20777;-59
2022/02/10 18:01:44;;;;;;;6.05;1.90;;;19.00;64.40;;;;;;4228751;27;20063;-60
2022/02/10 18:04:07;;;;;;;9.52;1.98;;;18.90;64.50;;;;;;4228361;27;20058;-60
2022/02/10 18:06:30;;;;;;;8.45;2.15;;;18.90;64.70;;;;;;4218505;27;20068;-60
2022/02/10 18:14:34;;;;;;;11.48;2.10;;;18.70;65.50;;;;;;4173989;28;20044;-59
2022/02/10 18:17:20;;;;;;;10.65;2.03;;;18.70;65.50;;;;;;4142770;28;20054;-60
2022/02/10 18:19:46;;;;;;;8.77;2.13;;;18.70;65.40;;;;;;4164079;28;20049;-60
2022/02/10 18:25:03;;;;;;;8.88;1.92;;;18.80;65.00;;;;;;4201650;28;20075;-59
2022/02/10 18:27:33;;;;;;;9.45;1.90;;;18.90;65.70;;;;;;4213778;28;20130;-55
2022/02/10 19:03:27;;;;;;;6.80;2.13;;;19.00;65.20;;;;;;4211239;28;20051;-60
2022/02/10 19:08:09;;;;;;;11.63;2.10;;;18.90;65.60;;;;;;4193261;28;20090;-61
2022/02/10 19:10:34;;;;;;;7.32;2.25;;;18.90;65.60;;;;;;4193193;28;20492;-61
2022/02/10 19:12:59;;;;;;;9.57;2.58;;;18.90;65.70;;;;;;4191492;28;20055;-61
2022/02/10 19:15:26;;;;;;;6.85;1.77;;;18.90;65.70;;;;;;4223515;27;20050;-61
2022/02/10 19:17:49;;;;;;;8.73;2.45;;;18.90;65.50;;;;;;4193452;28;20052;-62
2022/02/10 19:20:13;;;;;;;10.55;2.15;;;18.90;65.50;;;;;;4193106;28;20041;-61
2022/02/10 19:22:37;;;;;;;12.63;2.50;;;18.80;65.60;;;;;;4211031;28;20117;-61
2022/02/10 19:25:00;;;;;;;12.82;2.63;;;18.80;65.90;;;;;;4214042;27;21047;-61
2022/02/10 19:27:24;;;;;;;10.40;2.28;;;18.80;66.00;;;;;;4209921;28;20605;-62
2022/02/10 19:29:47;;;;;;;8.18;2.17;;;18.70;66.00;;;;;;4209777;28;20044;-62
2022/02/10 19:32:14;;;;;;;8.93;2.53;;;18.70;66.00;;;;;;4214124;28;20047;-61
2022/02/10 19:34:38;;;;;;;15.43;2.97;;;18.80;66.00;;;;;;4226759;27;20564;-63
2022/02/10 19:37:15;;;;;;;11.68;2.90;;;18.80;66.50;;;;;;4192823;28;20056;-61
2022/02/10 19:39:41;;;;;;;9.30;2.40;;;18.90;65.40;;;;;;4192968;28;20570;-60
2022/02/10 19:42:03;;;;;;;12.27;2.97;;;18.90;65.20;;;;;;4192938;28;21582;-61
2022/02/10 19:44:26;;;;;;;12.45;3.03;;;18.80;65.20;;;;;;4202440;28;20052;-61
2022/02/10 19:46:50;;;;;;;14.88;2.97;;;18.80;65.50;;;;;;4219659;27;20075;-60
2022/02/10 19:49:19;;;;;;;13.85;2.50;;;18.70;66.40;;;;;;4205467;28;20840;-61
2022/02/10 19:51:41;;;;;;;8.38;2.13;;;18.70;66.50;;;;;;4192747;28;20127;-60
2022/02/10 19:54:03;;;;;;;5.50;1.70;;;18.70;66.50;;;;;;4191846;28;20131;-60
2022/02/10 19:56:28;;;;;;;12.77;2.42;;;18.70;65.70;;;;;;4203903;27;20062;-61
2022/02/10 19:58:51;;;;;;;12.43;1.98;;;18.70;65.70;;;;;;4209670;28;20408;-60
2022/02/10 20:01:13;;;;;;;8.85;2.40;;;18.60;65.60;;;;;;4239577;27;20047;-61
2022/02/10 20:03:39;;;;;;;7.10;2.20;;;18.60;65.60;;;;;;4226549;27;20124;-62
2022/02/10 20:06:03;;;;;;;11.43;2.40;;;18.60;65.80;;;;;;4224879;28;20502;-61
2022/02/10 20:08:26;;;;;;;8.75;2.22;;;18.50;66.00;;;;;;4212640;27;20044;-60
2022/02/10 20:10:51;;;;;;;8.32;2.75;;;18.50;67.10;;;;;;4217988;28;20048;-61
2022/02/10 20:13:16;;;;;;;6.95;2.35;;;18.50;66.20;;;;;;4200680;28;20060;-61
2022/02/10 20:15:38;;;;;;;9.13;2.25;;;18.50;66.20;;;;;;4209402;28;20916;-61
2022/02/10 20:18:02;;;;;;;10.15;2.13;;;18.50;66.00;;;;;;4212461;28;20605;-61
2022/02/10 20:20:25;;;;;;;9.98;2.35;;;18.50;66.00;;;;;;4206096;28;20059;-61
2022/02/10 20:22:48;;;;;;;9.15;2.30;;;18.40;66.00;;;;;;4192581;28;21101;-61
2022/02/10 20:25:31;;;;;;;11.00;1.90;;;18.40;66.20;;;;;;4206141;28;20056;-61
2022/02/10 20:27:53;;;;;;;10.23;2.30;;;18.30;66.50;;;;;;4223565;27;20040;-61
2022/02/10 20:30:15;;;;;;;8.18;2.40;;;18.20;66.90;;;;;;4226128;28;20067;-61
2022/02/10 20:32:39;;;;;;;11.95;2.58;;;18.10;68.10;;;;;;4225959;28;20043;-61
2022/02/10 20:35:03;;;;;;;10.07;2.47;;;18.00;67.50;;;;;;4211932;28;20472;-61
2022/02/10 20:37:27;;;;;;;9.95;2.72;;;17.90;67.80;;;;;;4214311;28;20044;-61
2022/02/10 20:39:49;;;;;;;6.88;2.33;;;17.90;68.20;;;;;;4221364;28;20055;-59
2022/02/10 20:42:16;;;;;;;11.52;1.92;;;17.80;68.40;;;;;;4201589;28;20147;-59
2022/02/10 20:44:42;;;;;;;8.30;2.30;;;17.70;68.70;;;;;;4208508;28;20051;-59
2022/02/10 20:47:05;;;;;;;12.52;2.35;;;17.60;69.10;;;;;;4223513;28;20075;-59
2022/02/10 20:49:28;;;;;;;10.50;2.42;;;17.50;69.40;;;;;;4216923;28;20048;-59
2022/02/10 20:51:50;;;;;;;8.18;2.13;;;17.40;70.50;;;;;;4212405;28;20050;-59
2022/02/10 20:54:14;;;;;;;8.98;2.30;;;17.40;70.00;;;;;;4206662;28;20074;-60
2022/02/10 20:56:37;;;;;;;12.07;2.78;;;17.30;70.30;;;;;;4208347;28;20414;-60
2022/02/10 20:59:07;;;;;;;9.43;2.17;;;17.20;70.60;;;;;;4214051;28;20084;-60
2022/02/10 21:01:29;;;;;;;10.68;2.50;;;17.20;70.90;;;;;;4212605;28;20121;-59
2022/02/10 21:03:51;;;;;;;8.23;2.33;;;17.00;71.00;;;;;;4217684;28;20154;-59
2022/02/10 21:06:27;;;;;;;10.07;2.58;;;17.00;71.10;;;;;;4217230;27;20048;-59
2022/02/10 21:08:54;;;;;;;11.52;2.15;;;16.90;71.50;;;;;;4191657;28;20075;-59
2022/02/10 21:11:22;;;;;;;12.30;2.45;;;16.90;71.50;;;;;;4191495;28;20055;-60
2022/02/10 21:13:45;;;;;;;9.60;2.33;;;16.80;71.60;;;;;;4205961;28;20063;-59
2022/02/10 21:16:07;;;;;;;9.02;2.15;;;16.70;72.10;;;;;;4223750;27;20134;-60
2022/02/10 21:18:30;;;;;;;11.20;2.60;;;16.70;72.10;;;;;;4205286;28;20047;-60
2022/02/10 21:20:57;;;;;;;15.45;3.22;;;16.70;72.20;;;;;;4223964;28;20118;-60
2022/02/10 21:23:24;;;;;;;9.15;2.65;;;16.60;72.00;;;;;;4195173;28;20750;-60
2022/02/10 21:25:48;;;;;;;9.35;2.45;;;16.60;73.20;;;;;;4215427;28;20048;-60
2022/02/10 21:28:21;;;;;;;8.52;2.17;;;16.50;73.20;;;;;;4210575;28;20048;-59
2022/02/10 21:30:46;;;;;;;11.55;2.40;;;16.50;72.50;;;;;;4208925;28;20048;-59
2022/02/10 21:33:14;;;;;;;9.93;1.90;;;16.40;72.80;;;;;;4191609;28;20048;-59
2022/02/10 21:35:51;;;;;;;7.30;2.28;;;16.40;73.10;;;;;;4191710;28;20125;-59
2022/02/10 21:38:17;;;;;;;8.68;2.40;;;16.40;73.20;;;;;;4193138;28;20048;-60
2022/02/10 21:41:09;;;;;;;10.93;2.95;;;16.30;73.20;;;;;;4209847;28;20046;-60
2022/02/10 22:00:14;;;;;;;11.18;2.38;;;16.10;73.40;;;;;;4164352;28;20107;-60
2022/02/10 22:10:59;;;;;;;11.82;1.88;;;16.00;73.70;;;;;;4208239;28;20105;-60
2022/02/10 22:16:39;;;;;;;8.43;2.67;;;16.00;73.50;;;;;;4224932;28;20067;-60
2022/02/10 22:19:06;;;;;;;9.33;2.50;;;16.00;73.60;;;;;;4221542;28;20101;-60
2022/02/10 22:21:31;;;;;;;8.48;1.85;;;15.90;73.60;;;;;;4220047;27;20274;-60
2022/02/10 22:23:53;;;;;;;10.15;2.60;;;15.90;74.30;;;;;;4219041;28;20098;-60
2022/02/10 22:26:23;;;;;;;7.60;2.10;;;15.90;73.40;;;;;;4194631;28;20044;-59
2022/02/10 22:28:51;;;;;;;6.90;2.28;;;15.90;73.20;;;;;;4212549;27;20090;-60
2022/02/10 22:31:26;;;;;;;8.52;2.00;;;15.80;73.20;;;;;;4227754;27;20047;-59
2022/02/10 22:33:58;;;;;;;5.47;1.92;;;15.80;73.40;;;;;;4227716;27;20047;-59
2022/02/10 22:36:22;;;;;;;6.82;1.88;;;15.80;73.40;;;;;;4224042;27;20048;-59
2022/02/10 22:38:46;;;;;;;5.55;1.77;;;15.80;73.40;;;;;;4204973;28;20048;-60
2022/02/10 22:41:12;;;;;;;8.63;2.10;;;15.80;73.60;;;;;;4194656;28;20458;-59
2022/02/10 22:43:34;;;;;;;6.10;1.75;;;15.80;73.50;;;;;;4194458;28;20040;-59
2022/02/10 22:45:57;;;;;;;11.43;2.22;;;15.70;73.50;;;;;;4193179;28;20126;-60
2022/02/10 22:48:20;;;;;;;6.28;1.38;;;15.70;73.50;;;;;;4194515;28;20127;-59
2022/02/10 22:50:42;;;;;;;4.82;1.80;;;15.70;73.60;;;;;;4194068;28;20114;-59
2022/02/10 22:53:04;;;;;;;8.73;2.45;;;15.70;73.70;;;;;;4198082;28;20416;-59
2022/02/10 22:55:26;;;;;;;7.65;1.67;;;15.60;73.60;;;;;;4227499;27;20044;-60
2022/02/10 22:57:49;;;;;;;7.35;1.63;;;15.60;73.70;;;;;;4227712;27;20445;-59
2022/02/10 23:00:33;;;;;;;8.77;2.30;;;15.60;73.60;;;;;;4227586;27;20399;-59
2022/02/10 23:02:56;;;;;;;8.57;2.10;;;15.50;73.60;;;;;;4227144;27;20105;-60
2022/02/10 23:05:23;;;;;;;7.78;2.00;;;15.50;73.80;;;;;;4202393;28;20051;-60
2022/02/10 23:07:47;;;;;;;6.55;1.85;;;15.50;73.40;;;;;;4221960;27;20051;-60
2022/02/10 23:12:46;;;;;;;6.47;2.05;;;15.40;73.20;;;;;;4210272;28;20136;-60
2022/02/10 23:15:08;;;;;;;9.43;1.67;;;15.40;73.50;;;;;;4209432;28;20046;-60
2022/02/10 23:17:31;;;;;;;6.15;1.48;;;15.30;73.70;;;;;;4216617;28;20147;-60
2022/02/10 23:19:55;;;;;;;11.13;1.98;;;15.30;73.70;;;;;;4227424;27;20191;-60
2022/02/10 23:22:19;;;;;;;6.53;2.22;;;15.30;74.50;;;;;;4220476;28;20044;-60
2022/02/10 23:24:41;;;;;;;6.97;1.83;;;15.20;73.80;;;;;;4210546;28;20533;-60
2022/02/10 23:27:03;;;;;;;10.95;1.90;;;15.20;73.80;;;;;;4210121;28;20121;-60
2022/02/10 23:29:25;;;;;;;7.00;1.92;;;15.20;73.90;;;;;;4210325;28;20127;-60
2022/02/10 23:31:48;;;;;;;4.13;1.85;;;15.10;74.10;;;;;;4210521;28;20063;-61
2022/02/10 23:34:10;;;;;;;8.00;1.98;;;15.10;74.10;;;;;;4211268;28;20068;-60
2022/02/10 23:36:48;;;;;;;11.45;2.13;;;15.10;74.70;;;;;;4224039;27;20055;-61
2022/02/10 23:39:17;;;;;;;7.03;1.52;;;15.10;74.20;;;;;;4209963;28;20515;-61
2022/02/10 23:42:02;;;;;;;10.52;2.20;;;15.10;74.30;;;;;;4209511;28;20059;-61
2022/02/10 23:44:29;;;;;;;7.13;1.83;;;15.00;74.80;;;;;;4209512;28;20058;-60
2022/02/10 23:46:51;;;;;;;5.82;1.77;;;15.00;74.90;;;;;;4223335;28;20059;-60
2022/02/10 23:49:18;;;;;;;5.85;1.73;;;15.00;74.80;;;;;;4226598;27;20105;-59
2022/02/10 23:51:47;;;;;;;8.45;2.25;;;15.00;74.90;;;;;;4218066;28;20065;-60
2022/02/10 23:54:10;;;;;;;5.28;2.15;;;14.90;75.00;;;;;;4209640;28;20047;-59
2022/02/10 23:56:40;;;;;;;7.70;1.95;;;14.90;74.60;;;;;;4209223;28;22463;-60
2022/02/10 23:59:09;;;;;;;5.03;1.77;;;15.00;75.60;;;;;;4209045;28;20476;-60
